Terminal Aerodrome Forecast
Issued by NWS Twin Cities, MN

Home | Current Version | Previous Version | Graphics & Text | Print | Product List | Glossary On
Versions: 1 2 3 4 5 6 7 8 9 10 11 12 13 14 15 16 17 18 19 20 21 22 23 24
000
FTUS43 KMPX 012327
TAFMSP
TAF
KMSP 012327Z 0200/0306 14010KT P6SM FEW240 BKN300
     FM020600 14007KT P6SM SCT250
     FM021200 14010KT P6SM FEW040 SCT250
     FM021700 16015G20KT P6SM SCT040 BKN150
     FM030300 15012KT P6SM BKN040=

USA.gov is the U.S. government's official web portal to all federal, state and local government web resources and services.